sensor_id;sensor_type;location;lat;lon;timestamp;temperature;humidity
14014;DHT22;49110;52.584;13.408;2022-10-16T00:00:42;16.70;99.90
14014;DHT22;49110;52.584;13.408;2022-10-16T00:01:43;16.70;99.90
14014;DHT22;49110;52.584;13.408;2022-10-16T00:02:43;16.70;99.90
14014;DHT22;49110;52.584;13.408;2022-10-16T00:03:45;16.70;99.90
14014;DHT22;49110;52.584;13.408;2022-10-16T00:04:46;16.70;99.90
14014;DHT22;49110;52.584;13.408;2022-10-16T00:05:46;16.70;99.90
14014;DHT22;49110;52.584;13.408;2022-10-16T00:06:47;16.80;99.90
14014;DHT22;49110;52.584;13.408;2022-10-16T00:07:48;16.80;99.90
14014;DHT22;49110;52.584;13.408;2022-10-16T00:08:49;16.80;99.90
14014;DHT22;49110;52.584;13.408;2022-10-16T00:09:49;16.80;99.90
14014;DHT22;49110;52.584;13.408;2022-10-16T00:10:50;16.80;99.90
14014;DHT22;49110;52.584;13.408;2022-10-16T00:11:53;16.80;99.90
14014;DHT22;49110;52.584;13.408;2022-10-16T00:12:54;16.90;99.90
14014;DHT22;49110;52.584;13.408;2022-10-16T00:13:57;16.90;99.90
14014;DHT22;49110;52.584;13.408;2022-10-16T00:14:58;16.90;99.90
14014;DHT22;49110;52.584;13.408;2022-10-16T00:15:59;16.90;99.90
14014;DHT22;49110;52.584;13.408;2022-10-16T00:17:00;16.90;99.90
14014;DHT22;49110;52.584;13.408;2022-10-16T00:18:01;16.90;99.90
14014;DHT22;49110;52.584;13.408;2022-10-16T00:19:02;16.90;99.90
14014;DHT22;49110;52.584;13.408;2022-10-16T00:20:03;16.90;99.90
14014;DHT22;49110;52.584;13.408;2022-10-16T00:21:15;16.90;99.90
14014;DHT22;49110;52.584;13.408;2022-10-16T00:22:15;16.90;99.90
14014;DHT22;49110;52.584;13.408;2022-10-16T00:23:16;16.80;99.90
14014;DHT22;49110;52.584;13.408;2022-10-16T00:24:16;16.80;99.90
14014;DHT22;49110;52.584;13.408;2022-10-16T00:25:17;16.80;99.90
14014;DHT22;49110;52.584;13.408;2022-10-16T00:26:18;16.80;99.90
14014;DHT22;49110;52.584;13.408;2022-10-16T00:27:19;16.80;99.90
14014;DHT22;49110;52.584;13.408;2022-10-16T00:28:20;16.80;99.90
14014;DHT22;49110;52.584;13.408;2022-10-16T00:29:20;16.80;99.90
14014;DHT22;49110;52.584;13.408;2022-10-16T00:30:21;16.80;99.90
14014;DHT22;49110;52.584;13.408;2022-10-16T00:31:22;16.80;99.90
14014;DHT22;49110;52.584;13.408;2022-10-16T00:32:23;16.80;99.90
14014;DHT22;49110;52.584;13.408;2022-10-16T00:33:24;16.80;99.90
14014;DHT22;49110;52.584;13.408;2022-10-16T00:34:24;16.80;99.90
14014;DHT22;49110;52.584;13.408;2022-10-16T00:35:25;16.80;99.90
14014;DHT22;49110;52.584;13.408;2022-10-16T00:36:26;16.80;99.90
14014;DHT22;49110;52.584;13.408;2022-10-16T00:37:27;16.80;99.90
14014;DHT22;49110;52.584;13.408;2022-10-16T00:38:28;16.80;99.90
14014;DHT22;49110;52.584;13.408;2022-10-16T00:39:28;16.80;99.90
14014;DHT22;49110;52.584;13.408;2022-10-16T00:40:29;16.90;99.90
14014;DHT22;49110;52.584;13.408;2022-10-16T00:41:30;16.90;99.90
14014;DHT22;49110;52.584;13.408;2022-10-16T00:42:31;16.90;99.90
14014;DHT22;49110;52.584;13.408;2022-10-16T00:43:50;16.90;99.90
14014;DHT22;49110;52.584;13.408;2022-10-16T00:44:56;16.90;99.90
14014;DHT22;49110;52.584;13.408;2022-10-16T00:48:03;16.80;99.90
14014;DHT22;49110;52.584;13.408;2022-10-16T00:49:08;16.80;99.90
14014;DHT22;49110;52.584;13.408;2022-10-16T00:50:22;16.80;99.90
14014;DHT22;49110;52.584;13.408;2022-10-16T00:51:32;16.80;99.90
14014;DHT22;49110;52.584;13.408;2022-10-16T00:52:34;16.80;99.90
14014;DHT22;49110;52.584;13.408;2022-10-16T00:53:35;16.80;99.90
14014;DHT22;49110;52.584;13.408;2022-10-16T00:54:36;16.80;99.90
14014;DHT22;49110;52.584;13.408;2022-10-16T00:55:37;16.80;99.90
14014;DHT22;49110;52.584;13.408;2022-10-16T00:56:37;16.80;99.90
14014;DHT22;49110;52.584;13.408;2022-10-16T00:57:39;16.80;99.90
14014;DHT22;49110;52.584;13.408;2022-10-16T00:58:40;16.80;99.90
14014;DHT22;49110;52.584;13.408;2022-10-16T00:59:41;16.80;99.90
14014;DHT22;49110;52.584;13.408;2022-10-16T01:00:42;16.80;99.90
14014;DHT22;49110;52.584;13.408;2022-10-16T01:01:42;16.80;99.90
14014;DHT22;49110;52.584;13.408;2022-10-16T01:02:43;16.80;99.90
14014;DHT22;49110;52.584;13.408;2022-10-16T01:03:44;16.80;99.90
14014;DHT22;49110;52.584;13.408;2022-10-16T01:04:50;16.80;99.90
14014;DHT22;49110;52.584;13.408;2022-10-16T01:06:18;16.90;99.90
14014;DHT22;49110;52.584;13.408;2022-10-16T01:08:34;16.90;99.90
14014;DHT22;49110;52.584;13.408;2022-10-16T01:10:57;16.90;99.90
14014;DHT22;49110;52.584;13.408;2022-10-16T01:12:14;16.90;99.90
14014;DHT22;49110;52.584;13.408;2022-10-16T01:13:21;16.80;99.90
14014;DHT22;49110;52.584;13.408;2022-10-16T01:14:32;16.80;99.90
14014;DHT22;49110;52.584;13.408;2022-10-16T01:15:42;16.80;99.90
14014;DHT22;49110;52.584;13.408;2022-10-16T01:17:15;16.80;99.90
14014;DHT22;49110;52.584;13.408;2022-10-16T01:18:36;16.80;99.90
14014;DHT22;49110;52.584;13.408;2022-10-16T01:21:03;16.70;99.90
14014;DHT22;49110;52.584;13.408;2022-10-16T01:22:07;16.70;99.90
14014;DHT22;49110;52.584;13.408;2022-10-16T01:27:57;16.80;99.90
14014;DHT22;49110;52.584;13.408;2022-10-16T01:29:17;16.80;99.90
14014;DHT22;49110;52.584;13.408;2022-10-16T01:30:26;16.80;99.90
14014;DHT22;49110;52.584;13.408;2022-10-16T01:31:31;16.80;99.90
14014;DHT22;49110;52.584;13.408;2022-10-16T01:32:59;16.80;99.90
14014;DHT22;49110;52.584;13.408;2022-10-16T01:34:08;16.80;99.90
14014;DHT22;49110;52.584;13.408;2022-10-16T01:35:43;16.80;99.90
14014;DHT22;49110;52.584;13.408;2022-10-16T01:36:49;16.80;99.90
14014;DHT22;49110;52.584;13.408;2022-10-16T01:39:09;16.80;99.90
14014;DHT22;49110;52.584;13.408;2022-10-16T01:40:13;16.80;99.90
14014;DHT22;49110;52.584;13.408;2022-10-16T01:41:22;16.80;99.90
14014;DHT22;49110;52.584;13.408;2022-10-16T01:42:31;16.80;99.90
14014;DHT22;49110;52.584;13.408;2022-10-16T01:43:38;16.80;99.90
14014;DHT22;49110;52.584;13.408;2022-10-16T01:44:39;16.90;99.90
14014;DHT22;49110;52.584;13.408;2022-10-16T01:45:41;16.90;99.90
14014;DHT22;49110;52.584;13.408;2022-10-16T01:46:44;16.90;99.90
14014;DHT22;49110;52.584;13.408;2022-10-16T01:47:48;16.80;99.90
14014;DHT22;49110;52.584;13.408;2022-10-16T01:48:50;16.80;99.90
14014;DHT22;49110;52.584;13.408;2022-10-16T01:49:52;16.90;99.90
14014;DHT22;49110;52.584;13.408;2022-10-16T01:51:11;16.90;99.90
14014;DHT22;49110;52.584;13.408;2022-10-16T01:52:15;16.80;99.90
14014;DHT22;49110;52.584;13.408;2022-10-16T01:53:17;16.90;99.90
14014;DHT22;49110;52.584;13.408;2022-10-16T01:54:19;16.90;99.90
14014;DHT22;49110;52.584;13.408;2022-10-16T01:55:28;16.80;99.90
14014;DHT22;49110;52.584;13.408;2022-10-16T01:56:30;16.90;99.90
14014;DHT22;49110;52.584;13.408;2022-10-16T01:57:32;16.90;99.90
14014;DHT22;49110;52.584;13.408;2022-10-16T01:58:41;16.80;99.90
14014;DHT22;49110;52.584;13.408;2022-10-16T01:59:46;16.90;99.90
14014;DHT22;49110;52.584;13.408;2022-10-16T02:00:47;16.90;99.90
14014;DHT22;49110;52.584;13.408;2022-10-16T02:02:00;16.90;99.90
14014;DHT22;49110;52.584;13.408;2022-10-16T02:03:02;16.80;99.90
14014;DHT22;49110;52.584;13.408;2022-10-16T02:04:15;16.90;99.90
14014;DHT22;49110;52.584;13.408;2022-10-16T02:05:49;16.90;99.90
14014;DHT22;49110;52.584;13.408;2022-10-16T02:06:50;16.90;99.90
14014;DHT22;49110;52.584;13.408;2022-10-16T02:07:52;16.80;99.90
14014;DHT22;49110;52.584;13.408;2022-10-16T02:08:53;16.80;99.90
14014;DHT22;49110;52.584;13.408;2022-10-16T02:09:54;16.90;99.90
14014;DHT22;49110;52.584;13.408;2022-10-16T02:10:56;16.80;99.90
14014;DHT22;49110;52.584;13.408;2022-10-16T02:11:59;16.90;99.90
14014;DHT22;49110;52.584;13.408;2022-10-16T02:13:09;16.90;99.90
14014;DHT22;49110;52.584;13.408;2022-10-16T02:14:10;16.80;99.90
14014;DHT22;49110;52.584;13.408;2022-10-16T02:15:11;16.80;99.90
14014;DHT22;49110;52.584;13.408;2022-10-16T02:16:13;16.90;99.90
14014;DHT22;49110;52.584;13.408;2022-10-16T02:17:16;16.90;99.90
14014;DHT22;49110;52.584;13.408;2022-10-16T02:18:17;16.90;99.90
14014;DHT22;49110;52.584;13.408;2022-10-16T02:19:19;16.90;99.90
14014;DHT22;49110;52.584;13.408;2022-10-16T02:20:25;16.80;99.90
14014;DHT22;49110;52.584;13.408;2022-10-16T02:21:38;16.90;99.90
14014;DHT22;49110;52.584;13.408;2022-10-16T02:22:44;16.90;99.90
14014;DHT22;49110;52.584;13.408;2022-10-16T02:24:11;16.90;99.90
14014;DHT22;49110;52.584;13.408;2022-10-16T02:25:24;16.90;99.90
14014;DHT22;49110;52.584;13.408;2022-10-16T02:26:41;16.90;99.90
14014;DHT22;49110;52.584;13.408;2022-10-16T02:27:51;16.90;99.90
14014;DHT22;49110;52.584;13.408;2022-10-16T02:28:58;16.90;99.90
14014;DHT22;49110;52.584;13.408;2022-10-16T02:31:10;16.90;99.90
14014;DHT22;49110;52.584;13.408;2022-10-16T02:32:14;16.80;99.90
14014;DHT22;49110;52.584;13.408;2022-10-16T02:33:16;16.80;99.90
14014;DHT22;49110;52.584;13.408;2022-10-16T02:34:19;16.80;99.90
14014;DHT22;49110;52.584;13.408;2022-10-16T02:35:22;16.80;99.90
14014;DHT22;49110;52.584;13.408;2022-10-16T02:36:23;16.90;99.90
14014;DHT22;49110;52.584;13.408;2022-10-16T02:37:25;16.80;99.90
14014;DHT22;49110;52.584;13.408;2022-10-16T02:38:26;16.80;99.90
14014;DHT22;49110;52.584;13.408;2022-10-16T02:39:28;16.80;99.90
14014;DHT22;49110;52.584;13.408;2022-10-16T02:40:30;16.90;99.90
14014;DHT22;49110;52.584;13.408;2022-10-16T02:41:31;16.90;99.90
14014;DHT22;49110;52.584;13.408;2022-10-16T02:42:36;16.90;99.90
14014;DHT22;49110;52.584;13.408;2022-10-16T02:43:37;16.90;99.90
14014;DHT22;49110;52.584;13.408;2022-10-16T02:44:38;16.90;99.90
14014;DHT22;49110;52.584;13.408;2022-10-16T02:45:39;16.90;99.90
14014;DHT22;49110;52.584;13.408;2022-10-16T02:46:39;16.90;99.90
14014;DHT22;49110;52.584;13.408;2022-10-16T02:47:40;16.90;99.90
14014;DHT22;49110;52.584;13.408;2022-10-16T02:48:40;16.90;99.90
14014;DHT22;49110;52.584;13.408;2022-10-16T02:49:41;16.90;99.90
14014;DHT22;49110;52.584;13.408;2022-10-16T02:50:41;16.90;99.90
14014;DHT22;49110;52.584;13.408;2022-10-16T02:51:42;16.90;99.90
14014;DHT22;49110;52.584;13.408;2022-10-16T02:52:42;16.80;99.90
14014;DHT22;49110;52.584;13.408;2022-10-16T02:53:43;16.90;99.90
14014;DHT22;49110;52.584;13.408;2022-10-16T02:54:44;16.90;99.90
14014;DHT22;49110;52.584;13.408;2022-10-16T02:55:44;16.90;99.90
14014;DHT22;49110;52.584;13.408;2022-10-16T02:56:45;16.90;99.90
14014;DHT22;49110;52.584;13.408;2022-10-16T02:57:45;16.90;99.90
14014;DHT22;49110;52.584;13.408;2022-10-16T02:58:46;16.80;99.90
14014;DHT22;49110;52.584;13.408;2022-10-16T02:59:46;16.90;99.90
14014;DHT22;49110;52.584;13.408;2022-10-16T03:00:47;16.90;99.90
14014;DHT22;49110;52.584;13.408;2022-10-16T03:01:47;16.90;99.90
14014;DHT22;49110;52.584;13.408;2022-10-16T03:02:48;16.90;99.90
14014;DHT22;49110;52.584;13.408;2022-10-16T03:03:48;16.90;99.90
14014;DHT22;49110;52.584;13.408;2022-10-16T03:04:49;16.90;99.90
14014;DHT22;49110;52.584;13.408;2022-10-16T03:05:49;16.90;99.90
14014;DHT22;49110;52.584;13.408;2022-10-16T03:06:50;16.90;99.90
14014;DHT22;49110;52.584;13.408;2022-10-16T03:07:50;16.80;99.90
14014;DHT22;49110;52.584;13.408;2022-10-16T03:08:52;16.80;99.90
14014;DHT22;49110;52.584;13.408;2022-10-16T03:09:53;16.80;99.90
14014;DHT22;49110;52.584;13.408;2022-10-16T03:10:54;16.80;99.90
14014;DHT22;49110;52.584;13.408;2022-10-16T03:11:55;16.80;99.90
14014;DHT22;49110;52.584;13.408;2022-10-16T03:12:55;16.80;99.90
14014;DHT22;49110;52.584;13.408;2022-10-16T03:13:56;16.70;99.90
14014;DHT22;49110;52.584;13.408;2022-10-16T03:14:57;16.70;99.90
14014;DHT22;49110;52.584;13.408;2022-10-16T03:15:58;16.70;99.90
14014;DHT22;49110;52.584;13.408;2022-10-16T03:16:58;16.70;99.90
14014;DHT22;49110;52.584;13.408;2022-10-16T03:17:59;16.60;99.90
14014;DHT22;49110;52.584;13.408;2022-10-16T03:18:59;16.60;99.90
14014;DHT22;49110;52.584;13.408;2022-10-16T03:20:00;16.60;99.90
14014;DHT22;49110;52.584;13.408;2022-10-16T03:21:00;16.60;99.90
14014;DHT22;49110;52.584;13.408;2022-10-16T03:22:01;16.60;99.90
14014;DHT22;49110;52.584;13.408;2022-10-16T03:23:02;16.50;99.90
14014;DHT22;49110;52.584;13.408;2022-10-16T03:24:03;16.50;99.90
14014;DHT22;49110;52.584;13.408;2022-10-16T03:25:04;16.50;99.90
14014;DHT22;49110;52.584;13.408;2022-10-16T03:26:05;16.50;99.90
14014;DHT22;49110;52.584;13.408;2022-10-16T03:27:05;16.50;99.90
14014;DHT22;49110;52.584;13.408;2022-10-16T03:28:06;16.50;99.90
14014;DHT22;49110;52.584;13.408;2022-10-16T03:29:06;16.50;99.90
14014;DHT22;49110;52.584;13.408;2022-10-16T03:30:07;16.50;99.90
14014;DHT22;49110;52.584;13.408;2022-10-16T03:31:08;16.40;99.90
14014;DHT22;49110;52.584;13.408;2022-10-16T03:32:09;16.40;99.90
14014;DHT22;49110;52.584;13.408;2022-10-16T03:33:09;16.40;99.90
14014;DHT22;49110;52.584;13.408;2022-10-16T03:34:10;16.30;99.90
14014;DHT22;49110;52.584;13.408;2022-10-16T03:35:10;16.30;99.90
14014;DHT22;49110;52.584;13.408;2022-10-16T03:36:11;16.30;99.90
14014;DHT22;49110;52.584;13.408;2022-10-16T03:37:11;16.30;99.90
14014;DHT22;49110;52.584;13.408;2022-10-16T03:38:12;16.30;99.90
14014;DHT22;49110;52.584;13.408;2022-10-16T03:39:12;16.30;99.90
14014;DHT22;49110;52.584;13.408;2022-10-16T03:40:13;16.30;99.90
14014;DHT22;49110;52.584;13.408;2022-10-16T03:41:14;16.30;99.90
14014;DHT22;49110;52.584;13.408;2022-10-16T03:42:15;16.30;99.90
14014;DHT22;49110;52.584;13.408;2022-10-16T03:43:15;16.30;99.90
14014;DHT22;49110;52.584;13.408;2022-10-16T03:44:16;16.30;99.90
14014;DHT22;49110;52.584;13.408;2022-10-16T03:45:16;16.30;99.90
14014;DHT22;49110;52.584;13.408;2022-10-16T03:46:17;16.30;99.90
14014;DHT22;49110;52.584;13.408;2022-10-16T03:47:17;16.30;99.90
14014;DHT22;49110;52.584;13.408;2022-10-16T03:48:21;16.30;99.90
14014;DHT22;49110;52.584;13.408;2022-10-16T03:49:22;16.30;99.90
14014;DHT22;49110;52.584;13.408;2022-10-16T03:50:22;16.30;99.90
14014;DHT22;49110;52.584;13.408;2022-10-16T03:51:23;16.20;99.90
14014;DHT22;49110;52.584;13.408;2022-10-16T03:52:23;16.20;99.90
14014;DHT22;49110;52.584;13.408;2022-10-16T03:53:24;16.20;99.90
14014;DHT22;49110;52.584;13.408;2022-10-16T03:54:25;16.20;99.90
14014;DHT22;49110;52.584;13.408;2022-10-16T03:55:25;16.20;99.90
14014;DHT22;49110;52.584;13.408;2022-10-16T03:56:26;16.20;99.90
14014;DHT22;49110;52.584;13.408;2022-10-16T03:57:26;16.30;99.90
14014;DHT22;49110;52.584;13.408;2022-10-16T03:58:27;16.20;99.90
14014;DHT22;49110;52.584;13.408;2022-10-16T03:59:27;16.30;99.90
14014;DHT22;49110;52.584;13.408;2022-10-16T04:00:28;16.30;99.90
14014;DHT22;49110;52.584;13.408;2022-10-16T04:01:28;16.30;99.90
14014;DHT22;49110;52.584;13.408;2022-10-16T04:02:29;16.20;99.90
14014;DHT22;49110;52.584;13.408;2022-10-16T04:03:29;16.20;99.90
14014;DHT22;49110;52.584;13.408;2022-10-16T04:04:30;16.20;99.90
14014;DHT22;49110;52.584;13.408;2022-10-16T04:05:30;16.20;99.90
14014;DHT22;49110;52.584;13.408;2022-10-16T04:06:31;16.20;99.90
14014;DHT22;49110;52.584;13.408;2022-10-16T04:07:31;16.20;99.90
14014;DHT22;49110;52.584;13.408;2022-10-16T04:08:32;16.20;99.90
14014;DHT22;49110;52.584;13.408;2022-10-16T04:09:35;16.20;99.90
14014;DHT22;49110;52.584;13.408;2022-10-16T04:10:35;16.20;99.90
14014;DHT22;49110;52.584;13.408;2022-10-16T04:11:36;16.20;99.90
14014;DHT22;49110;52.584;13.408;2022-10-16T04:12:36;16.20;99.90
14014;DHT22;49110;52.584;13.408;2022-10-16T04:13:37;16.30;99.90
14014;DHT22;49110;52.584;13.408;2022-10-16T04:14:37;16.30;99.90
14014;DHT22;49110;52.584;13.408;2022-10-16T04:15:38;16.30;99.90
14014;DHT22;49110;52.584;13.408;2022-10-16T04:16:39;16.20;99.90
14014;DHT22;49110;52.584;13.408;2022-10-16T04:17:39;16.30;99.90
14014;DHT22;49110;52.584;13.408;2022-10-16T04:18:39;16.30;99.90
14014;DHT22;49110;52.584;13.408;2022-10-16T04:19:40;16.30;99.90
14014;DHT22;49110;52.584;13.408;2022-10-16T04:20:40;16.30;99.90
14014;DHT22;49110;52.584;13.408;2022-10-16T04:21:41;16.30;99.90
14014;DHT22;49110;52.584;13.408;2022-10-16T04:22:41;16.30;99.90
14014;DHT22;49110;52.584;13.408;2022-10-16T04:23:42;16.30;99.90
14014;DHT22;49110;52.584;13.408;2022-10-16T04:24:42;16.20;99.90
14014;DHT22;49110;52.584;13.408;2022-10-16T04:25:43;16.20;99.90
14014;DHT22;49110;52.584;13.408;2022-10-16T04:26:43;16.20;99.90
14014;DHT22;49110;52.584;13.408;2022-10-16T04:27:44;16.20;99.90
14014;DHT22;49110;52.584;13.408;2022-10-16T04:28:44;16.20;99.90
14014;DHT22;49110;52.584;13.408;2022-10-16T04:29:45;16.10;99.90
14014;DHT22;49110;52.584;13.408;2022-10-16T04:30:45;16.10;99.90
14014;DHT22;49110;52.584;13.408;2022-10-16T04:31:46;16.10;99.90
14014;DHT22;49110;52.584;13.408;2022-10-16T04:32:50;16.10;99.90
14014;DHT22;49110;52.584;13.408;2022-10-16T04:33:51;16.10;99.90
14014;DHT22;49110;52.584;13.408;2022-10-16T04:34:52;16.10;99.90
14014;DHT22;49110;52.584;13.408;2022-10-16T04:36:02;16.20;99.90
14014;DHT22;49110;52.584;13.408;2022-10-16T04:37:03;16.20;99.90
14014;DHT22;49110;52.584;13.408;2022-10-16T04:38:04;16.10;99.90
14014;DHT22;49110;52.584;13.408;2022-10-16T04:39:04;16.20;99.90
14014;DHT22;49110;52.584;13.408;2022-10-16T04:40:05;16.10;99.90
14014;DHT22;49110;52.584;13.408;2022-10-16T04:41:06;16.10;99.90
14014;DHT22;49110;52.584;13.408;2022-10-16T04:42:07;16.10;99.90
14014;DHT22;49110;52.584;13.408;2022-10-16T04:43:07;16.20;99.90
14014;DHT22;49110;52.584;13.408;2022-10-16T04:44:08;16.20;99.90
14014;DHT22;49110;52.584;13.408;2022-10-16T04:45:09;16.10;99.90
14014;DHT22;49110;52.584;13.408;2022-10-16T04:46:10;16.10;99.90
14014;DHT22;49110;52.584;13.408;2022-10-16T04:47:10;16.10;99.90
14014;DHT22;49110;52.584;13.408;2022-10-16T04:48:11;16.10;99.90
14014;DHT22;49110;52.584;13.408;2022-10-16T04:49:11;16.10;99.90
14014;DHT22;49110;52.584;13.408;2022-10-16T04:50:12;16.10;99.90
14014;DHT22;49110;52.584;13.408;2022-10-16T04:51:12;16.00;99.90
14014;DHT22;49110;52.584;13.408;2022-10-16T04:52:13;16.00;99.90
14014;DHT22;49110;52.584;13.408;2022-10-16T04:53:13;16.00;99.90
14014;DHT22;49110;52.584;13.408;2022-10-16T04:54:14;16.00;99.90
14014;DHT22;49110;52.584;13.408;2022-10-16T04:55:15;15.90;99.90
14014;DHT22;49110;52.584;13.408;2022-10-16T04:56:15;15.90;99.90
14014;DHT22;49110;52.584;13.408;2022-10-16T04:57:16;15.90;99.90
14014;DHT22;49110;52.584;13.408;2022-10-16T04:58:17;15.90;99.90
14014;DHT22;49110;52.584;13.408;2022-10-16T04:59:18;15.90;99.90
14014;DHT22;49110;52.584;13.408;2022-10-16T05:00:19;15.90;99.90
14014;DHT22;49110;52.584;13.408;2022-10-16T05:01:20;15.90;99.90
14014;DHT22;49110;52.584;13.408;2022-10-16T05:02:20;15.90;99.90
14014;DHT22;49110;52.584;13.408;2022-10-16T05:03:20;15.90;99.90
14014;DHT22;49110;52.584;13.408;2022-10-16T05:04:21;15.90;99.90
14014;DHT22;49110;52.584;13.408;2022-10-16T05:05:22;16.00;99.90
14014;DHT22;49110;52.584;13.408;2022-10-16T05:06:23;15.90;99.90
14014;DHT22;49110;52.584;13.408;2022-10-16T05:07:23;16.00;99.90
14014;DHT22;49110;52.584;13.408;2022-10-16T05:08:24;15.90;99.90
14014;DHT22;49110;52.584;13.408;2022-10-16T05:09:24;15.90;99.90
14014;DHT22;49110;52.584;13.408;2022-10-16T05:10:25;15.90;99.90
14014;DHT22;49110;52.584;13.408;2022-10-16T05:11:25;16.00;99.90
14014;DHT22;49110;52.584;13.408;2022-10-16T05:12:26;15.90;99.90
14014;DHT22;49110;52.584;13.408;2022-10-16T05:13:26;15.90;99.90
14014;DHT22;49110;52.584;13.408;2022-10-16T05:14:27;15.90;99.90
14014;DHT22;49110;52.584;13.408;2022-10-16T05:15:27;15.90;99.90
14014;DHT22;49110;52.584;13.408;2022-10-16T05:16:29;15.90;99.90
14014;DHT22;49110;52.584;13.408;2022-10-16T05:17:30;15.90;99.90
14014;DHT22;49110;52.584;13.408;2022-10-16T05:18:31;15.90;99.90
14014;DHT22;49110;52.584;13.408;2022-10-16T05:19:31;15.90;99.90
14014;DHT22;49110;52.584;13.408;2022-10-16T05:20:32;15.90;99.90
14014;DHT22;49110;52.584;13.408;2022-10-16T05:21:32;15.90;99.90
14014;DHT22;49110;52.584;13.408;2022-10-16T05:22:33;15.80;99.90
14014;DHT22;49110;52.584;13.408;2022-10-16T05:23:33;15.80;99.90
14014;DHT22;49110;52.584;13.408;2022-10-16T05:24:34;15.90;99.90
14014;DHT22;49110;52.584;13.408;2022-10-16T05:25:35;15.90;99.90
14014;DHT22;49110;52.584;13.408;2022-10-16T05:26:36;15.90;99.90
14014;DHT22;49110;52.584;13.408;2022-10-16T05:27:36;15.90;99.90
14014;DHT22;49110;52.584;13.408;2022-10-16T05:28:37;15.90;99.90
14014;DHT22;49110;52.584;13.408;2022-10-16T05:29:37;15.90;99.90
14014;DHT22;49110;52.584;13.408;2022-10-16T05:30:38;15.90;99.90
14014;DHT22;49110;52.584;13.408;2022-10-16T05:31:38;16.00;99.90
14014;DHT22;49110;52.584;13.408;2022-10-16T05:32:39;16.00;99.90
14014;DHT22;49110;52.584;13.408;2022-10-16T05:33:40;16.00;99.90
14014;DHT22;49110;52.584;13.408;2022-10-16T05:34:40;16.00;99.90
14014;DHT22;49110;52.584;13.408;2022-10-16T05:35:41;16.00;99.90
14014;DHT22;49110;52.584;13.408;2022-10-16T05:36:42;16.00;99.90
14014;DHT22;49110;52.584;13.408;2022-10-16T05:37:42;15.90;99.90
14014;DHT22;49110;52.584;13.408;2022-10-16T05:38:43;15.90;99.90
14014;DHT22;49110;52.584;13.408;2022-10-16T05:39:43;15.90;99.90
14014;DHT22;49110;52.584;13.408;2022-10-16T05:40:50;15.90;99.90
14014;DHT22;49110;52.584;13.408;2022-10-16T05:41:51;15.90;99.90
14014;DHT22;49110;52.584;13.408;2022-10-16T05:42:55;15.90;99.90
14014;DHT22;49110;52.584;13.408;2022-10-16T05:43:55;16.00;99.90
14014;DHT22;49110;52.584;13.408;2022-10-16T05:44:56;16.00;99.90
14014;DHT22;49110;52.584;13.408;2022-10-16T05:45:57;16.00;99.90
14014;DHT22;49110;52.584;13.408;2022-10-16T05:46:58;16.10;99.90
14014;DHT22;49110;52.584;13.408;2022-10-16T05:47:59;16.10;99.90
14014;DHT22;49110;52.584;13.408;2022-10-16T05:49:00;16.10;99.90
14014;DHT22;49110;52.584;13.408;2022-10-16T05:50:01;16.10;99.90
14014;DHT22;49110;52.584;13.408;2022-10-16T05:51:03;16.20;99.90
14014;DHT22;49110;52.584;13.408;2022-10-16T05:52:04;16.20;99.90
14014;DHT22;49110;52.584;13.408;2022-10-16T05:53:05;16.20;99.90
14014;DHT22;49110;52.584;13.408;2022-10-16T05:54:05;16.20;99.90
14014;DHT22;49110;52.584;13.408;2022-10-16T05:55:06;16.10;99.90
14014;DHT22;49110;52.584;13.408;2022-10-16T05:56:09;16.20;99.90
14014;DHT22;49110;52.584;13.408;2022-10-16T05:57:10;16.20;99.90
14014;DHT22;49110;52.584;13.408;2022-10-16T05:58:10;16.10;99.90
14014;DHT22;49110;52.584;13.408;2022-10-16T05:59:11;16.10;99.90
14014;DHT22;49110;52.584;13.408;2022-10-16T06:00:12;16.20;99.90
14014;DHT22;49110;52.584;13.408;2022-10-16T06:01:17;16.20;99.90
14014;DHT22;49110;52.584;13.408;2022-10-16T06:02:17;16.30;99.90
14014;DHT22;49110;52.584;13.408;2022-10-16T06:03:18;16.30;99.90
14014;DHT22;49110;52.584;13.408;2022-10-16T06:04:18;16.30;99.90
14014;DHT22;49110;52.584;13.408;2022-10-16T06:05:19;16.30;99.90
14014;DHT22;49110;52.584;13.408;2022-10-16T06:06:21;16.40;99.90
14014;DHT22;49110;52.584;13.408;2022-10-16T06:07:23;16.30;99.90
14014;DHT22;49110;52.584;13.408;2022-10-16T06:08:24;16.40;99.90
14014;DHT22;49110;52.584;13.408;2022-10-16T06:09:24;16.30;99.90
14014;DHT22;49110;52.584;13.408;2022-10-16T06:10:25;16.40;99.90
14014;DHT22;49110;52.584;13.408;2022-10-16T06:11:28;16.40;99.90
14014;DHT22;49110;52.584;13.408;2022-10-16T06:12:28;16.40;99.90
14014;DHT22;49110;52.584;13.408;2022-10-16T06:13:29;16.40;99.90
14014;DHT22;49110;52.584;13.408;2022-10-16T06:14:30;16.40;99.90
14014;DHT22;49110;52.584;13.408;2022-10-16T06:15:30;16.50;99.90
14014;DHT22;49110;52.584;13.408;2022-10-16T06:16:31;16.50;99.90
14014;DHT22;49110;52.584;13.408;2022-10-16T06:17:31;16.50;99.90
14014;DHT22;49110;52.584;13.408;2022-10-16T06:18:32;16.50;99.90
14014;DHT22;49110;52.584;13.408;2022-10-16T06:19:32;16.60;99.90
14014;DHT22;49110;52.584;13.408;2022-10-16T06:20:33;16.60;99.90
14014;DHT22;49110;52.584;13.408;2022-10-16T06:21:33;16.60;99.90
14014;DHT22;49110;52.584;13.408;2022-10-16T06:22:34;16.60;99.90
14014;DHT22;49110;52.584;13.408;2022-10-16T06:23:34;16.70;99.90
14014;DHT22;49110;52.584;13.408;2022-10-16T06:24:35;16.60;99.90
14014;DHT22;49110;52.584;13.408;2022-10-16T06:25:35;16.60;99.90
14014;DHT22;49110;52.584;13.408;2022-10-16T06:26:37;16.70;99.90
14014;DHT22;49110;52.584;13.408;2022-10-16T06:27:41;16.70;99.90
14014;DHT22;49110;52.584;13.408;2022-10-16T06:28:42;16.70;99.90
14014;DHT22;49110;52.584;13.408;2022-10-16T06:29:43;16.70;99.90
14014;DHT22;49110;52.584;13.408;2022-10-16T06:30:45;16.70;99.90
14014;DHT22;49110;52.584;13.408;2022-10-16T06:31:45;16.70;99.90
14014;DHT22;49110;52.584;13.408;2022-10-16T06:32:46;16.70;99.90
14014;DHT22;49110;52.584;13.408;2022-10-16T06:33:50;16.70;99.90
14014;DHT22;49110;52.584;13.408;2022-10-16T06:34:51;16.70;99.90
14014;DHT22;49110;52.584;13.408;2022-10-16T06:35:51;16.70;99.90
14014;DHT22;49110;52.584;13.408;2022-10-16T06:36:52;16.70;99.90
14014;DHT22;49110;52.584;13.408;2022-10-16T06:37:53;16.70;99.90
14014;DHT22;49110;52.584;13.408;2022-10-16T06:38:54;16.70;99.90
14014;DHT22;49110;52.584;13.408;2022-10-16T06:39:54;16.70;99.90
14014;DHT22;49110;52.584;13.408;2022-10-16T06:40:55;16.70;99.90